sensor_id;sensor_type;location;lat;lon;timestamp;temperature;humidity
37232;DHT22;23125;48.156;15.954;2023-05-07T00:00:46;16.50;59.10
37232;DHT22;23125;48.156;15.954;2023-05-07T00:03:12;16.50;59.30
37232;DHT22;23125;48.156;15.954;2023-05-07T00:05:39;16.40;59.30
37232;DHT22;23125;48.156;15.954;2023-05-07T00:08:05;16.40;59.40
37232;DHT22;23125;48.156;15.954;2023-05-07T00:10:31;16.40;59.40
37232;DHT22;23125;48.156;15.954;2023-05-07T00:12:57;16.40;59.30
37232;DHT22;23125;48.156;15.954;2023-05-07T00:15:23;16.30;59.30
37232;DHT22;23125;48.156;15.954;2023-05-07T00:17:49;16.30;59.30
37232;DHT22;23125;48.156;15.954;2023-05-07T00:20:14;16.20;59.30
37232;DHT22;23125;48.156;15.954;2023-05-07T00:22:41;16.20;59.30
37232;DHT22;23125;48.156;15.954;2023-05-07T00:25:07;16.10;59.20
37232;DHT22;23125;48.156;15.954;2023-05-07T00:27:33;16.10;59.30
37232;DHT22;23125;48.156;15.954;2023-05-07T00:29:59;16.10;59.40
37232;DHT22;23125;48.156;15.954;2023-05-07T00:32:25;16.00;59.20
37232;DHT22;23125;48.156;15.954;2023-05-07T00:34:51;16.00;59.30
37232;DHT22;23125;48.156;15.954;2023-05-07T00:37:17;15.90;59.30
37232;DHT22;23125;48.156;15.954;2023-05-07T00:39:43;15.80;59.40
37232;DHT22;23125;48.156;15.954;2023-05-07T00:42:09;15.70;59.30
37232;DHT22;23125;48.156;15.954;2023-05-07T00:44:35;15.70;59.40
37232;DHT22;23125;48.156;15.954;2023-05-07T00:47:03;15.70;59.60
37232;DHT22;23125;48.156;15.954;2023-05-07T00:49:43;15.60;59.80
37232;DHT22;23125;48.156;15.954;2023-05-07T00:52:14;15.60;59.90
37232;DHT22;23125;48.156;15.954;2023-05-07T00:54:41;15.60;59.90
37232;DHT22;23125;48.156;15.954;2023-05-07T00:57:09;15.50;59.90
37232;DHT22;23125;48.156;15.954;2023-05-07T00:59:37;15.50;59.90
37232;DHT22;23125;48.156;15.954;2023-05-07T01:02:03;15.50;60.00
37232;DHT22;23125;48.156;15.954;2023-05-07T01:04:29;15.50;60.00
37232;DHT22;23125;48.156;15.954;2023-05-07T01:06:56;15.50;59.90
37232;DHT22;23125;48.156;15.954;2023-05-07T01:09:24;15.40;59.90
37232;DHT22;23125;48.156;15.954;2023-05-07T01:11:52;15.40;59.90
37232;DHT22;23125;48.156;15.954;2023-05-07T01:14:19;15.40;60.00
37232;DHT22;23125;48.156;15.954;2023-05-07T01:16:47;15.40;59.90
37232;DHT22;23125;48.156;15.954;2023-05-07T01:19:14;15.40;59.90
37232;DHT22;23125;48.156;15.954;2023-05-07T01:21:48;15.30;59.90
37232;DHT22;23125;48.156;15.954;2023-05-07T01:24:15;15.30;59.90
37232;DHT22;23125;48.156;15.954;2023-05-07T01:26:43;15.30;59.90
37232;DHT22;23125;48.156;15.954;2023-05-07T01:29:10;15.30;60.60
37232;DHT22;23125;48.156;15.954;2023-05-07T01:31:37;15.30;60.00
37232;DHT22;23125;48.156;15.954;2023-05-07T01:34:04;15.20;60.00
37232;DHT22;23125;48.156;15.954;2023-05-07T01:36:31;15.20;60.00
37232;DHT22;23125;48.156;15.954;2023-05-07T01:38:59;15.10;59.90
37232;DHT22;23125;48.156;15.954;2023-05-07T01:41:25;15.10;59.80
37232;DHT22;23125;48.156;15.954;2023-05-07T01:43:52;15.00;59.90
37232;DHT22;23125;48.156;15.954;2023-05-07T01:46:20;15.00;60.00
37232;DHT22;23125;48.156;15.954;2023-05-07T01:48:47;14.90;60.00
37232;DHT22;23125;48.156;15.954;2023-05-07T01:51:13;14.90;60.00
37232;DHT22;23125;48.156;15.954;2023-05-07T01:53:39;14.80;60.00
37232;DHT22;23125;48.156;15.954;2023-05-07T01:56:06;14.80;60.10
37232;DHT22;23125;48.156;15.954;2023-05-07T01:58:33;14.80;60.20
37232;DHT22;23125;48.156;15.954;2023-05-07T02:00:59;14.70;60.20
37232;DHT22;23125;48.156;15.954;2023-05-07T02:03:25;14.70;60.30
37232;DHT22;23125;48.156;15.954;2023-05-07T02:05:51;14.70;61.00
37232;DHT22;23125;48.156;15.954;2023-05-07T02:08:17;14.60;60.30
37232;DHT22;23125;48.156;15.954;2023-05-07T02:10:43;14.60;60.30
37232;DHT22;23125;48.156;15.954;2023-05-07T02:13:08;14.50;60.20
37232;DHT22;23125;48.156;15.954;2023-05-07T02:15:34;14.50;60.30
37232;DHT22;23125;48.156;15.954;2023-05-07T02:18:03;14.50;60.40
37232;DHT22;23125;48.156;15.954;2023-05-07T02:20:29;14.40;60.30
37232;DHT22;23125;48.156;15.954;2023-05-07T02:22:55;14.40;60.30
37232;DHT22;23125;48.156;15.954;2023-05-07T02:25:21;14.30;60.40
37232;DHT22;23125;48.156;15.954;2023-05-07T02:27:47;14.30;60.50
37232;DHT22;23125;48.156;15.954;2023-05-07T02:30:14;14.30;60.80
37232;DHT22;23125;48.156;15.954;2023-05-07T02:32:40;14.30;60.60
37232;DHT22;23125;48.156;15.954;2023-05-07T02:35:06;14.30;60.60
37232;DHT22;23125;48.156;15.954;2023-05-07T02:37:32;14.30;60.70
37232;DHT22;23125;48.156;15.954;2023-05-07T02:39:58;14.20;60.70
37232;DHT22;23125;48.156;15.954;2023-05-07T02:42:24;14.20;61.30
37232;DHT22;23125;48.156;15.954;2023-05-07T02:44:50;14.20;60.70
37232;DHT22;23125;48.156;15.954;2023-05-07T02:47:16;14.20;60.70
37232;DHT22;23125;48.156;15.954;2023-05-07T02:49:41;14.20;60.70
37232;DHT22;23125;48.156;15.954;2023-05-07T02:52:08;14.20;60.70
37232;DHT22;23125;48.156;15.954;2023-05-07T02:54:34;14.20;60.70
37232;DHT22;23125;48.156;15.954;2023-05-07T02:56:59;14.10;60.60
37232;DHT22;23125;48.156;15.954;2023-05-07T02:59:26;14.10;60.60
37232;DHT22;23125;48.156;15.954;2023-05-07T03:01:52;14.10;60.70
37232;DHT22;23125;48.156;15.954;2023-05-07T03:04:18;14.00;60.80
37232;DHT22;23125;48.156;15.954;2023-05-07T03:06:44;14.00;60.90
37232;DHT22;23125;48.156;15.954;2023-05-07T03:09:10;14.00;60.90
37232;DHT22;23125;48.156;15.954;2023-05-07T03:11:36;14.00;60.80
37232;DHT22;23125;48.156;15.954;2023-05-07T03:14:02;14.00;60.90
37232;DHT22;23125;48.156;15.954;2023-05-07T03:16:28;13.90;60.80
37232;DHT22;23125;48.156;15.954;2023-05-07T03:18:54;13.90;61.00
37232;DHT22;23125;48.156;15.954;2023-05-07T03:21:20;13.90;61.00
37232;DHT22;23125;48.156;15.954;2023-05-07T03:23:46;13.90;61.10
37232;DHT22;23125;48.156;15.954;2023-05-07T03:26:11;13.90;61.10
37232;DHT22;23125;48.156;15.954;2023-05-07T03:28:37;13.80;61.10
37232;DHT22;23125;48.156;15.954;2023-05-07T03:31:03;13.80;61.10
37232;DHT22;23125;48.156;15.954;2023-05-07T03:33:30;13.90;61.30
37232;DHT22;23125;48.156;15.954;2023-05-07T03:35:56;13.80;61.20
37232;DHT22;23125;48.156;15.954;2023-05-07T03:38:22;13.80;61.20
37232;DHT22;23125;48.156;15.954;2023-05-07T03:40:50;13.90;61.30
37232;DHT22;23125;48.156;15.954;2023-05-07T03:43:16;13.90;61.40
37232;DHT22;23125;48.156;15.954;2023-05-07T03:45:42;13.90;61.30
37232;DHT22;23125;48.156;15.954;2023-05-07T03:48:08;13.90;61.30
37232;DHT22;23125;48.156;15.954;2023-05-07T03:50:34;13.90;61.40
37232;DHT22;23125;48.156;15.954;2023-05-07T03:53:00;13.80;61.50
37232;DHT22;23125;48.156;15.954;2023-05-07T03:55:25;13.90;61.70
37232;DHT22;23125;48.156;15.954;2023-05-07T03:57:52;13.90;61.70
37232;DHT22;23125;48.156;15.954;2023-05-07T04:00:18;14.00;61.80
37232;DHT22;23125;48.156;15.954;2023-05-07T04:02:45;14.00;62.00
37232;DHT22;23125;48.156;15.954;2023-05-07T04:05:12;14.00;62.20
37232;DHT22;23125;48.156;15.954;2023-05-07T04:07:40;14.00;62.20
37232;DHT22;23125;48.156;15.954;2023-05-07T04:10:06;14.10;62.30
37232;DHT22;23125;48.156;15.954;2023-05-07T04:12:32;14.10;62.40
37232;DHT22;23125;48.156;15.954;2023-05-07T04:14:59;14.20;62.50
37232;DHT22;23125;48.156;15.954;2023-05-07T04:17:25;14.30;62.70
37232;DHT22;23125;48.156;15.954;2023-05-07T04:19:50;14.40;62.90
37232;DHT22;23125;48.156;15.954;2023-05-07T04:22:16;14.40;62.70
37232;DHT22;23125;48.156;15.954;2023-05-07T04:24:42;14.50;62.80
37232;DHT22;23125;48.156;15.954;2023-05-07T04:27:08;14.60;62.80
37232;DHT22;23125;48.156;15.954;2023-05-07T04:29:34;14.70;62.80
37232;DHT22;23125;48.156;15.954;2023-05-07T04:32:00;14.80;62.90
37232;DHT22;23125;48.156;15.954;2023-05-07T04:34:27;14.90;62.80
37232;DHT22;23125;48.156;15.954;2023-05-07T04:36:53;14.90;62.60
37232;DHT22;23125;48.156;15.954;2023-05-07T04:39:19;14.90;62.60
37232;DHT22;23125;48.156;15.954;2023-05-07T04:41:44;15.00;62.50
37232;DHT22;23125;48.156;15.954;2023-05-07T04:44:10;15.00;62.50
37232;DHT22;23125;48.156;15.954;2023-05-07T04:46:36;15.10;62.50
37232;DHT22;23125;48.156;15.954;2023-05-07T04:49:02;15.10;62.50
37232;DHT22;23125;48.156;15.954;2023-05-07T04:51:29;15.10;62.60
37232;DHT22;23125;48.156;15.954;2023-05-07T04:53:58;15.20;62.70
37232;DHT22;23125;48.156;15.954;2023-05-07T04:56:24;15.30;63.00
37232;DHT22;23125;48.156;15.954;2023-05-07T04:58:52;15.30;63.10
37232;DHT22;23125;48.156;15.954;2023-05-07T05:01:18;15.40;63.10
37232;DHT22;23125;48.156;15.954;2023-05-07T05:03:44;15.40;63.10
37232;DHT22;23125;48.156;15.954;2023-05-07T05:06:10;15.50;63.20
37232;DHT22;23125;48.156;15.954;2023-05-07T05:08:36;15.60;63.40
37232;DHT22;23125;48.156;15.954;2023-05-07T05:11:02;15.70;63.50
37232;DHT22;23125;48.156;15.954;2023-05-07T05:13:28;15.80;63.70
37232;DHT22;23125;48.156;15.954;2023-05-07T05:15:54;15.90;63.80
37232;DHT22;23125;48.156;15.954;2023-05-07T05:18:20;16.00;63.80
37232;DHT22;23125;48.156;15.954;2023-05-07T05:20:46;16.10;64.00
37232;DHT22;23125;48.156;15.954;2023-05-07T05:23:12;16.20;64.00
37232;DHT22;23125;48.156;15.954;2023-05-07T05:25:38;16.30;63.90
37232;DHT22;23125;48.156;15.954;2023-05-07T05:28:04;16.40;63.80
37232;DHT22;23125;48.156;15.954;2023-05-07T05:30:31;16.50;63.80
37232;DHT22;23125;48.156;15.954;2023-05-07T05:32:57;16.50;63.70
37232;DHT22;23125;48.156;15.954;2023-05-07T05:35:23;16.60;63.80
37232;DHT22;23125;48.156;15.954;2023-05-07T05:37:49;16.70;63.90
37232;DHT22;23125;48.156;15.954;2023-05-07T05:40:15;16.80;63.90
37232;DHT22;23125;48.156;15.954;2023-05-07T05:42:41;16.80;63.80
37232;DHT22;23125;48.156;15.954;2023-05-07T05:45:07;17.00;64.60
37232;DHT22;23125;48.156;15.954;2023-05-07T05:47:33;17.00;63.90
37232;DHT22;23125;48.156;15.954;2023-05-07T05:49:59;17.10;64.00
37232;DHT22;23125;48.156;15.954;2023-05-07T05:52:25;17.10;64.10
37232;DHT22;23125;48.156;15.954;2023-05-07T05:54:51;17.20;64.10
37232;DHT22;23125;48.156;15.954;2023-05-07T05:57:17;17.30;64.00
37232;DHT22;23125;48.156;15.954;2023-05-07T05:59:43;17.40;64.10
37232;DHT22;23125;48.156;15.954;2023-05-07T06:02:09;17.50;64.30
37232;DHT22;23125;48.156;15.954;2023-05-07T06:04:35;17.60;64.30
37232;DHT22;23125;48.156;15.954;2023-05-07T06:07:01;17.70;64.30
37232;DHT22;23125;48.156;15.954;2023-05-07T06:09:27;17.90;64.20
37232;DHT22;23125;48.156;15.954;2023-05-07T06:11:52;17.90;64.00
37232;DHT22;23125;48.156;15.954;2023-05-07T06:14:18;18.00;64.00
37232;DHT22;23125;48.156;15.954;2023-05-07T06:16:44;18.10;64.10
37232;DHT22;23125;48.156;15.954;2023-05-07T06:19:10;18.20;64.50
37232;DHT22;23125;48.156;15.954;2023-05-07T06:21:36;18.40;64.40
37232;DHT22;23125;48.156;15.954;2023-05-07T06:24:02;18.50;64.10
37232;DHT22;23125;48.156;15.954;2023-05-07T06:26:27;18.60;64.40
37232;DHT22;23125;48.156;15.954;2023-05-07T06:28:53;18.60;63.60
37232;DHT22;23125;48.156;15.954;2023-05-07T06:31:20;18.80;63.80
37232;DHT22;23125;48.156;15.954;2023-05-07T06:33:46;18.90;63.90
37232;DHT22;23125;48.156;15.954;2023-05-07T06:36:12;19.00;63.70
37232;DHT22;23125;48.156;15.954;2023-05-07T06:38:38;19.10;63.50
37232;DHT22;23125;48.156;15.954;2023-05-07T06:41:06;19.30;63.50
37232;DHT22;23125;48.156;15.954;2023-05-07T06:43:32;19.50;63.40
37232;DHT22;23125;48.156;15.954;2023-05-07T06:45:58;19.50;62.90
37232;DHT22;23125;48.156;15.954;2023-05-07T06:48:24;19.60;62.50
37232;DHT22;23125;48.156;15.954;2023-05-07T06:50:50;19.70;62.40
37232;DHT22;23125;48.156;15.954;2023-05-07T06:53:16;19.80;62.00
37232;DHT22;23125;48.156;15.954;2023-05-07T06:55:42;19.80;61.30
37232;DHT22;23125;48.156;15.954;2023-05-07T06:58:08;19.80;61.10
37232;DHT22;23125;48.156;15.954;2023-05-07T07:00:34;19.90;61.10
37232;DHT22;23125;48.156;15.954;2023-05-07T07:03:00;19.90;61.10
37232;DHT22;23125;48.156;15.954;2023-05-07T07:05:26;19.90;61.10
37232;DHT22;23125;48.156;15.954;2023-05-07T07:07:52;20.00;61.00
37232;DHT22;23125;48.156;15.954;2023-05-07T07:10:19;20.00;60.80
37232;DHT22;23125;48.156;15.954;2023-05-07T07:12:45;20.00;60.60
37232;DHT22;23125;48.156;15.954;2023-05-07T07:15:12;20.00;60.40
37232;DHT22;23125;48.156;15.954;2023-05-07T07:17:38;20.00;60.20
37232;DHT22;23125;48.156;15.954;2023-05-07T07:20:05;20.00;59.90
37232;DHT22;23125;48.156;15.954;2023-05-07T07:22:31;20.00;59.90
37232;DHT22;23125;48.156;15.954;2023-05-07T07:24:57;20.00;60.10
37232;DHT22;23125;48.156;15.954;2023-05-07T07:27:23;20.00;60.70
37232;DHT22;23125;48.156;15.954;2023-05-07T07:29:49;20.10;60.30
37232;DHT22;23125;48.156;15.954;2023-05-07T07:32:15;20.10;60.10
37232;DHT22;23125;48.156;15.954;2023-05-07T07:34:41;20.20;59.80
37232;DHT22;23125;48.156;15.954;2023-05-07T07:37:07;20.20;59.60
37232;DHT22;23125;48.156;15.954;2023-05-07T07:39:34;20.10;59.20
37232;DHT22;23125;48.156;15.954;2023-05-07T07:42:00;20.10;59.40
37232;DHT22;23125;48.156;15.954;2023-05-07T07:44:27;20.20;59.60
37232;DHT22;23125;48.156;15.954;2023-05-07T07:46:53;20.20;59.60
37232;DHT22;23125;48.156;15.954;2023-05-07T07:49:20;20.30;59.70
37232;DHT22;23125;48.156;15.954;2023-05-07T07:51:46;20.40;59.50
37232;DHT22;23125;48.156;15.954;2023-05-07T07:54:12;20.50;59.40
37232;DHT22;23125;48.156;15.954;2023-05-07T07:56:38;20.60;59.20
37232;DHT22;23125;48.156;15.954;2023-05-07T07:59:04;20.60;58.90
37232;DHT22;23125;48.156;15.954;2023-05-07T08:01:30;20.70;59.10
37232;DHT22;23125;48.156;15.954;2023-05-07T08:03:57;20.80;59.10
37232;DHT22;23125;48.156;15.954;2023-05-07T08:06:25;20.90;59.10
37232;DHT22;23125;48.156;15.954;2023-05-07T08:08:52;21.00;59.00
37232;DHT22;23125;48.156;15.954;2023-05-07T08:11:18;21.10;58.30
37232;DHT22;23125;48.156;15.954;2023-05-07T08:13:44;21.10;57.70
37232;DHT22;23125;48.156;15.954;2023-05-07T08:16:11;21.00;56.80
37232;DHT22;23125;48.156;15.954;2023-05-07T08:18:36;20.90;56.60
37232;DHT22;23125;48.156;15.954;2023-05-07T08:21:02;20.90;56.80
37232;DHT22;23125;48.156;15.954;2023-05-07T08:23:28;20.80;57.20
37232;DHT22;23125;48.156;15.954;2023-05-07T08:25:54;20.80;57.30
37232;DHT22;23125;48.156;15.954;2023-05-07T08:28:20;20.90;57.40
37232;DHT22;23125;48.156;15.954;2023-05-07T08:30:47;20.90;57.50
37232;DHT22;23125;48.156;15.954;2023-05-07T08:33:13;21.00;57.50
37232;DHT22;23125;48.156;15.954;2023-05-07T08:35:38;21.10;57.30
37232;DHT22;23125;48.156;15.954;2023-05-07T08:38:04;21.20;57.20
37232;DHT22;23125;48.156;15.954;2023-05-07T08:40:36;21.20;57.20
37232;DHT22;23125;48.156;15.954;2023-05-07T08:43:03;21.40;57.30
37232;DHT22;23125;48.156;15.954;2023-05-07T08:45:30;21.50;57.50
37232;DHT22;23125;48.156;15.954;2023-05-07T08:48:18;21.70;57.00
37232;DHT22;23125;48.156;15.954;2023-05-07T08:50:46;21.80;56.70
37232;DHT22;23125;48.156;15.954;2023-05-07T08:53:12;21.90;56.60
37232;DHT22;23125;48.156;15.954;2023-05-07T08:55:39;21.90;55.50
37232;DHT22;23125;48.156;15.954;2023-05-07T08:58:05;21.90;55.20
37232;DHT22;23125;48.156;15.954;2023-05-07T09:00:32;21.90;55.10
37232;DHT22;23125;48.156;15.954;2023-05-07T09:02:58;22.00;55.10
37232;DHT22;23125;48.156;15.954;2023-05-07T09:05:24;22.00;55.20
37232;DHT22;23125;48.156;15.954;2023-05-07T09:07:50;22.10;55.10
37232;DHT22;23125;48.156;15.954;2023-05-07T09:10:16;22.10;55.20
37232;DHT22;23125;48.156;15.954;2023-05-07T09:12:42;22.20;55.20
37232;DHT22;23125;48.156;15.954;2023-05-07T09:15:08;22.30;55.00
37232;DHT22;23125;48.156;15.954;2023-05-07T09:17:34;22.50;55.20
37232;DHT22;23125;48.156;15.954;2023-05-07T09:20:04;22.60;54.50
37232;DHT22;23125;48.156;15.954;2023-05-07T09:22:37;22.80;54.40
37232;DHT22;23125;48.156;15.954;2023-05-07T09:25:05;23.10;55.40
37232;DHT22;23125;48.156;15.954;2023-05-07T09:27:31;23.60;56.00
37232;DHT22;23125;48.156;15.954;2023-05-07T09:29:57;24.20;55.90
37232;DHT22;23125;48.156;15.954;2023-05-07T09:32:25;24.60;54.50
37232;DHT22;23125;48.156;15.954;2023-05-07T09:34:52;25.00;53.60
37232;DHT22;23125;48.156;15.954;2023-05-07T09:37:18;25.10;52.60
37232;DHT22;23125;48.156;15.954;2023-05-07T09:39:46;25.20;51.20
37232;DHT22;23125;48.156;15.954;2023-05-07T09:42:13;25.10;50.30
37232;DHT22;23125;48.156;15.954;2023-05-07T09:44:41;25.10;50.30
37232;DHT22;23125;48.156;15.954;2023-05-07T09:47:08;25.00;49.60
37232;DHT22;23125;48.156;15.954;2023-05-07T09:49:39;25.10;50.80
37232;DHT22;23125;48.156;15.954;2023-05-07T09:52:08;25.40;51.10
37232;DHT22;23125;48.156;15.954;2023-05-07T09:54:36;25.60;51.10
37232;DHT22;23125;48.156;15.954;2023-05-07T09:57:05;25.90;50.30
37232;DHT22;23125;48.156;15.954;2023-05-07T09:59:33;26.10;49.90
37232;DHT22;23125;48.156;15.954;2023-05-07T10:02:01;26.30;48.50
37232;DHT22;23125;48.156;15.954;2023-05-07T10:04:29;26.40;47.30
37232;DHT22;23125;48.156;15.954;2023-05-07T10:06:56;26.30;46.20
37232;DHT22;23125;48.156;15.954;2023-05-07T10:09:24;26.30;46.10
37232;DHT22;23125;48.156;15.954;2023-05-07T10:11:51;26.20;45.80
37232;DHT22;23125;48.156;15.954;2023-05-07T10:14:17;26.00;45.10
37232;DHT22;23125;48.156;15.954;2023-05-07T10:16:48;25.70;44.00
37232;DHT22;23125;48.156;15.954;2023-05-07T10:19:14;25.40;44.30
37232;DHT22;23125;48.156;15.954;2023-05-07T10:21:48;25.10;44.40
37232;DHT22;23125;48.156;15.954;2023-05-07T10:24:25;24.90;44.40
37232;DHT22;23125;48.156;15.954;2023-05-07T10:26:53;24.60;45.30
37232;DHT22;23125;48.156;15.954;2023-05-07T10:29:45;24.50;45.70
37232;DHT22;23125;48.156;15.954;2023-05-07T10:35:04;24.20;45.80
37232;DHT22;23125;48.156;15.954;2023-05-07T10:37:32;24.20;46.00
37232;DHT22;23125;48.156;15.954;2023-05-07T10:39:59;24.10;45.50
37232;DHT22;23125;48.156;15.954;2023-05-07T10:42:25;24.00;45.70
37232;DHT22;23125;48.156;15.954;2023-05-07T10:44:50;24.00;45.90
37232;DHT22;23125;48.156;15.954;2023-05-07T10:47:17;23.90;45.70
37232;DHT22;23125;48.156;15.954;2023-05-07T10:52:21;23.80;45.90
37232;DHT22;23125;48.156;15.954;2023-05-07T10:54:47;23.80;45.80
37232;DHT22;23125;48.156;15.954;2023-05-07T10:59:57;23.90;46.50
37232;DHT22;23125;48.156;15.954;2023-05-07T11:02:23;24.00;46.60
37232;DHT22;23125;48.156;15.954;2023-05-07T11:05:19;24.10;46.40
37232;DHT22;23125;48.156;15.954;2023-05-07T11:07:55;24.10;46.20
37232;DHT22;23125;48.156;15.954;2023-05-07T11:10:21;24.10;46.40
37232;DHT22;23125;48.156;15.954;2023-05-07T11:12:49;24.10;45.90
37232;DHT22;23125;48.156;15.954;2023-05-07T11:15:34;24.20;46.30
37232;DHT22;23125;48.156;15.954;2023-05-07T11:18:00;24.20;46.60
37232;DHT22;23125;48.156;15.954;2023-05-07T11:20:56;24.30;46.00
37232;DHT22;23125;48.156;15.954;2023-05-07T11:28:31;24.20;45.50
37232;DHT22;23125;48.156;15.954;2023-05-07T11:30:57;24.10;45.50
37232;DHT22;23125;48.156;15.954;2023-05-07T11:33:23;24.10;45.50
37232;DHT22;23125;48.156;15.954;2023-05-07T11:35:55;24.10;45.50
37232;DHT22;23125;48.156;15.954;2023-05-07T11:38:22;24.10;45.30
37232;DHT22;23125;48.156;15.954;2023-05-07T11:40:52;23.90;44.90
37232;DHT22;23125;48.156;15.954;2023-05-07T11:43:18;23.90;45.50
37232;DHT22;23125;48.156;15.954;2023-05-07T11:45:46;23.90;45.60
37232;DHT22;23125;48.156;15.954;2023-05-07T11:48:16;23.90;45.80
37232;DHT22;23125;48.156;15.954;2023-05-07T11:50:52;24.00;46.20
37232;DHT22;23125;48.156;15.954;2023-05-07T11:53:19;24.00;46.00
37232;DHT22;23125;48.156;15.954;2023-05-07T11:55:46;24.10;46.20
37232;DHT22;23125;48.156;15.954;2023-05-07T11:58:18;24.20;46.40
37232;DHT22;23125;48.156;15.954;2023-05-07T12:00:50;24.20;46.40
37232;DHT22;23125;48.156;15.954;2023-05-07T12:03:16;24.10;44.80
37232;DHT22;23125;48.156;15.954;2023-05-07T12:05:47;24.10;44.60
37232;DHT22;23125;48.156;15.954;2023-05-07T12:08:17;23.90;44.90
37232;DHT22;23125;48.156;15.954;2023-05-07T12:10:45;23.90;45.50
37232;DHT22;23125;48.156;15.954;2023-05-07T12:13:18;24.00;46.00
37232;DHT22;23125;48.156;15.954;2023-05-07T12:15:45;24.00;46.30
37232;DHT22;23125;48.156;15.954;2023-05-07T12:18:13;24.00;45.20
37232;DHT22;23125;48.156;15.954;2023-05-07T12:20:40;23.90;45.50
37232;DHT22;23125;48.156;15.954;2023-05-07T12:23:07;24.00;46.00
37232;DHT22;23125;48.156;15.954;2023-05-07T12:25:36;24.10;46.00
37232;DHT22;23125;48.156;15.954;2023-05-07T12:28:03;24.20;45.80
37232;DHT22;23125;48.156;15.954;2023-05-07T12:30:37;24.20;45.50
37232;DHT22;23125;48.156;15.954;2023-05-07T12:33:03;24.20;45.70
37232;DHT22;23125;48.156;15.954;2023-05-07T12:35:30;24.30;45.50
37232;DHT22;23125;48.156;15.954;2023-05-07T12:37:57;24.30;45.10
37232;DHT22;23125;48.156;15.954;2023-05-07T12:40:39;24.20;45.30
37232;DHT22;23125;48.156;15.954;2023-05-07T12:43:05;24.20;45.60
37232;DHT22;23125;48.156;15.954;2023-05-07T12:45:31;24.20;45.30
37232;DHT22;23125;48.156;15.954;2023-05-07T12:48:01;24.10;44.50
37232;DHT22;23125;48.156;15.954;2023-05-07T12:50:31;24.00;44.50
37232;DHT22;23125;48.156;15.954;2023-05-07T12:52:58;23.80;44.80
37232;DHT22;23125;48.156;15.954;2023-05-07T12:55:25;23.70;44.90
37232;DHT22;23125;48.156;15.954;2023-05-07T12:57:52;23.60;45.00
37232;DHT22;23125;48.156;15.954;2023-05-07T13:00:33;23.60;45.50
37232;DHT22;23125;48.156;15.954;2023-05-07T13:02:59;23.60;45.40
37232;DHT22;23125;48.156;15.954;2023-05-07T13:05:25;23.60;45.40
37232;DHT22;23125;48.156;15.954;2023-05-07T13:07:57;23.50;45.10
37232;DHT22;23125;48.156;15.954;2023-05-07T13:10:24;23.50;45.40
37232;DHT22;23125;48.156;15.954;2023-05-07T13:12:50;23.50;46.00
37232;DHT22;23125;48.156;15.954;2023-05-07T13:15:17;23.50;45.80
37232;DHT22;23125;48.156;15.954;2023-05-07T13:17:43;23.60;46.00
37232;DHT22;23125;48.156;15.954;2023-05-07T13:20:10;23.60;46.10
37232;DHT22;23125;48.156;15.954;2023-05-07T13:22:37;23.70;45.90
37232;DHT22;23125;48.156;15.954;2023-05-07T13:25:03;23.70;45.90
37232;DHT22;23125;48.156;15.954;2023-05-07T13:27:29;23.80;45.60
37232;DHT22;23125;48.156;15.954;2023-05-07T13:29:56;23.70;45.40
37232;DHT22;23125;48.156;15.954;2023-05-07T13:32:22;23.70;45.60
37232;DHT22;23125;48.156;15.954;2023-05-07T13:34:48;23.80;45.70
37232;DHT22;23125;48.156;15.954;2023-05-07T13:37:14;23.70;45.40
37232;DHT22;23125;48.156;15.954;2023-05-07T13:39:40;23.70;45.50
37232;DHT22;23125;48.156;15.954;2023-05-07T13:42:08;23.70;45.50
37232;DHT22;23125;48.156;15.954;2023-05-07T13:44:34;23.70;45.30
37232;DHT22;23125;48.156;15.954;2023-05-07T13:47:00;23.70;45.30
37232;DHT22;23125;48.156;15.954;2023-05-07T13:49:26;23.60;45.40
37232;DHT22;23125;48.156;15.954;2023-05-07T13:51:52;23.60;45.50
37232;DHT22;23125;48.156;15.954;2023-05-07T13:54:18;23.60;45.40
37232;DHT22;23125;48.156;15.954;2023-05-07T13:56:44;23.60;45.90
37232;DHT22;23125;48.156;15.954;2023-05-07T13:59:09;23.70;46.00
37232;DHT22;23125;48.156;15.954;2023-05-07T14:01:35;23.80;46.00
37232;DHT22;23125;48.156;15.954;2023-05-07T14:04:01;23.80;45.80
37232;DHT22;23125;48.156;15.954;2023-05-07T14:06:27;23.80;45.20
37232;DHT22;23125;48.156;15.954;2023-05-07T14:08:53;23.80;45.40
37232;DHT22;23125;48.156;15.954;2023-05-07T14:11:19;23.80;45.60
37232;DHT22;23125;48.156;15.954;2023-05-07T14:13:45;23.80;45.80
37232;DHT22;23125;48.156;15.954;2023-05-07T14:16:10;23.90;45.30
37232;DHT22;23125;48.156;15.954;2023-05-07T14:18:36;23.90;45.20
37232;DHT22;23125;48.156;15.954;2023-05-07T14:21:04;23.90;45.30
37232;DHT22;23125;48.156;15.954;2023-05-07T14:23:31;23.80;44.90
37232;DHT22;23125;48.156;15.954;2023-05-07T14:25:57;23.80;44.80
37232;DHT22;23125;48.156;15.954;2023-05-07T14:28:24;23.70;44.50
37232;DHT22;23125;48.156;15.954;2023-05-07T14:30:50;23.60;44.40
37232;DHT22;23125;48.156;15.954;2023-05-07T14:33:16;23.50;44.80
37232;DHT22;23125;48.156;15.954;2023-05-07T14:35:42;23.50;45.00
37232;DHT22;23125;48.156;15.954;2023-05-07T14:38:13;23.50;44.90
37232;DHT22;23125;48.156;15.954;2023-05-07T14:40:39;23.40;44.70
37232;DHT22;23125;48.156;15.954;2023-05-07T14:43:05;23.40;44.90
37232;DHT22;23125;48.156;15.954;2023-05-07T14:45:31;23.40;45.10
37232;DHT22;23125;48.156;15.954;2023-05-07T14:47:57;23.40;45.60
37232;DHT22;23125;48.156;15.954;2023-05-07T14:50:22;23.50;45.80
37232;DHT22;23125;48.156;15.954;2023-05-07T14:52:48;23.60;45.70
37232;DHT22;23125;48.156;15.954;2023-05-07T14:55:15;23.60;45.20
37232;DHT22;23125;48.156;15.954;2023-05-07T14:57:40;23.70;45.30
37232;DHT22;23125;48.156;15.954;2023-05-07T15:00:07;23.70;44.80
37232;DHT22;23125;48.156;15.954;2023-05-07T15:02:34;23.60;44.70
37232;DHT22;23125;48.156;15.954;2023-05-07T15:05:00;23.60;44.50
37232;DHT22;23125;48.156;15.954;2023-05-07T15:07:26;23.50;44.60
37232;DHT22;23125;48.156;15.954;2023-05-07T15:09:52;23.60;44.70
37232;DHT22;23125;48.156;15.954;2023-05-07T15:12:18;23.60;44.80
37232;DHT22;23125;48.156;15.954;2023-05-07T15:14:44;23.70;44.80
37232;DHT22;23125;48.156;15.954;2023-05-07T15:17:10;23.70;44.60
37232;DHT22;23125;48.156;15.954;2023-05-07T15:19:36;23.70;44.70
37232;DHT22;23125;48.156;15.954;2023-05-07T15:22:02;23.70;44.80
37232;DHT22;23125;48.156;15.954;2023-05-07T15:24:29;23.80;44.80
37232;DHT22;23125;48.156;15.954;2023-05-07T15:26:55;23.80;44.80